DAL196 RKSI-KSEA
Flight info
| Callsign | DAL196 |
|---|---|
| Flight time | N/A |
| Altitude | 35000 |
| Route | EGOBA2Y EGOBA Y697 KAE Y437 TENAS L512 GTC Y512 ADNAP R591 ADGOR DCT 4530N16000E 4830N17000E 4930N18000E 50N170W 5030N16000W 5030N15000W 50N140W DCT PRETY DCT TOU MARNR8 |
| Aircraft | A359/H-SDE2E3GHIJ3J4J5LM1ORWXY/LB1D1 |
Departure
| Time | 2026-05-01 14:09 |
|---|---|
| Airport | Incheon International Airport (RKSI) |
Arrival
| Time | N/A |
|---|---|
| Airport | Seattle–Tacoma International Airport (KSEA) |
| Time | Latitude | Longitude | Altitude | Speed | Heading |
|---|---|---|---|---|---|
| 2026-05-01 14:06 | 37.44413 | 126.44479 | 33 ft | 0 kts | 234° |
| 2026-05-01 14:06 | 37.44411 | 126.44476 | 33 ft | 0 kts | 234° |
| 2026-05-01 14:07 | 37.44408 | 126.44469 | 33 ft | 1 kts | 241° |
| 2026-05-01 14:07 | 37.44403 | 126.44424 | 33 ft | 16 kts | 280° |
| 2026-05-01 14:07 | 37.44412 | 126.44286 | 33 ft | 15 kts | 248° |
| 2026-05-01 14:08 | 37.44455 | 126.44065 | 33 ft | 29 kts | 323° |
| 2026-05-01 14:08 | 37.44824 | 126.43742 | 33 ft | 99 kts | 324° |
| 2026-05-01 14:08 | 37.45556 | 126.43089 | 34 ft | 157 kts | 324° |
| 2026-05-01 14:08 | 37.46576 | 126.42211 | 188 ft | 190 kts | 326° |
| 2026-05-01 14:09 | 37.47611 | 126.41178 | 884 ft | 185 kts | 315° |
| 2026-05-01 14:09 | 37.48466 | 126.39990 | 1359 ft | 189 kts | 308° |
| 2026-05-01 14:09 | 37.49293 | 126.38642 | 1682 ft | 203 kts | 310° |
| 2026-05-01 14:09 | 37.50201 | 126.37192 | 2004 ft | 219 kts | 296° |
| 2026-05-01 14:10 | 37.50566 | 126.35331 | 2325 ft | 234 kts | 272° |
| 2026-05-01 14:10 | 37.50590 | 126.33240 | 2693 ft | 249 kts | 270° |
| 2026-05-01 14:10 | 37.50592 | 126.30993 | 3109 ft | 262 kts | 270° |
| 2026-05-01 14:10 | 37.50613 | 126.28707 | 3728 ft | 266 kts | 271° |
| 2026-05-01 14:11 | 37.50653 | 126.26377 | 4409 ft | 268 kts | 271° |
| 2026-05-01 14:11 | 37.50755 | 126.21632 | 5742 ft | 273 kts | 269° |
| 2026-05-01 14:11 | 37.50380 | 126.19307 | 6348 ft | 276 kts | 242° |
| 2026-05-01 14:12 | 37.49159 | 126.17516 | 6966 ft | 278 kts | 212° |
| 2026-05-01 14:12 | 37.47407 | 126.16499 | 7616 ft | 279 kts | 200° |
| 2026-05-01 14:12 | 37.45586 | 126.15683 | 8221 ft | 283 kts | 199° |
| 2026-05-01 14:12 | 37.43726 | 126.14859 | 8825 ft | 286 kts | 198° |
| 2026-05-01 14:13 | 37.41766 | 126.14444 | 9397 ft | 289 kts | 174° |
| 2026-05-01 14:13 | 37.40490 | 126.14809 | 9775 ft | 290 kts | 156° |
| 2026-05-01 14:13 | 37.38385 | 126.16913 | 10464 ft | 296 kts | 131° |
| 2026-05-01 14:13 | 37.37022 | 126.18916 | 10747 ft | 310 kts | 130° |
| 2026-05-01 14:14 | 37.35618 | 126.21014 | 11021 ft | 324 kts | 130° |
| 2026-05-01 14:14 | 37.34123 | 126.23238 | 11291 ft | 338 kts | 127° |
| 2026-05-01 14:14 | 37.32967 | 126.25839 | 11534 ft | 351 kts | 109° |
| 2026-05-01 14:14 | 37.32515 | 126.28870 | 11781 ft | 363 kts | 92° |
| 2026-05-01 14:15 | 37.32475 | 126.32111 | 12146 ft | 372 kts | 89° |
| 2026-05-01 14:15 | 37.32491 | 126.35349 | 12647 ft | 377 kts | 89° |
| 2026-05-01 14:15 | 37.32495 | 126.38656 | 13205 ft | 379 kts | 90° |
| 2026-05-01 14:15 | 37.32481 | 126.41968 | 13746 ft | 382 kts | 90° |
| 2026-05-01 14:16 | 37.32455 | 126.45313 | 14270 ft | 385 kts | 90° |
| 2026-05-01 14:16 | 37.32422 | 126.48669 | 14777 ft | 388 kts | 90° |
| 2026-05-01 14:16 | 37.32384 | 126.52040 | 15269 ft | 391 kts | 90° |
| 2026-05-01 14:16 | 37.32346 | 126.55476 | 15758 ft | 393 kts | 90° |
| 2026-05-01 14:17 | 37.32306 | 126.58894 | 16234 ft | 396 kts | 90° |
| 2026-05-01 14:17 | 37.32266 | 126.62367 | 16707 ft | 399 kts | 90° |
| 2026-05-01 14:17 | 37.32224 | 126.65874 | 17172 ft | 401 kts | 91° |
| 2026-05-01 14:17 | 37.32181 | 126.69350 | 17622 ft | 404 kts | 91° |
| 2026-05-01 14:18 | 37.32138 | 126.72901 | 18070 ft | 407 kts | 91° |
| 2026-05-01 14:18 | 37.32098 | 126.76435 | 18504 ft | 409 kts | 91° |
| 2026-05-01 14:18 | 37.32058 | 126.80039 | 18936 ft | 412 kts | 91° |
| 2026-05-01 14:18 | 37.32030 | 126.82451 | 19219 ft | 413 kts | 91° |
| 2026-05-01 14:19 | 37.31974 | 126.87242 | 19767 ft | 417 kts | 91° |
| 2026-05-01 14:19 | 37.31929 | 126.90917 | 20177 ft | 419 kts | 91° |
| 2026-05-01 14:19 | 37.31883 | 126.94558 | 20575 ft | 422 kts | 91° |
| 2026-05-01 14:19 | 37.31971 | 126.98225 | 20951 ft | 424 kts | 83° |
| 2026-05-01 14:20 | 37.32587 | 127.01868 | 21323 ft | 427 kts | 72° |
| 2026-05-01 14:20 | 37.35204 | 127.08561 | 22081 ft | 431 kts | 59° |
| 2026-05-01 14:20 | 37.36713 | 127.11789 | 22440 ft | 433 kts | 59° |
| 2026-05-01 14:21 | 37.38253 | 127.15076 | 22796 ft | 436 kts | 59° |
| 2026-05-01 14:21 | 37.39779 | 127.18365 | 23147 ft | 438 kts | 59° |
| 2026-05-01 14:21 | 37.41300 | 127.21667 | 23489 ft | 440 kts | 60° |
| 2026-05-01 14:22 | 37.44348 | 127.28336 | 24146 ft | 444 kts | 60° |
| 2026-05-01 14:22 | 37.45900 | 127.31744 | 24465 ft | 446 kts | 60° |
| 2026-05-01 14:22 | 37.47364 | 127.35172 | 24769 ft | 448 kts | 64° |
| 2026-05-01 14:22 | 37.48564 | 127.38799 | 25067 ft | 450 kts | 70° |
| 2026-05-01 14:23 | 37.49459 | 127.42580 | 25356 ft | 452 kts | 76° |
| 2026-05-01 14:23 | 37.50119 | 127.46401 | 25641 ft | 454 kts | 78° |
| 2026-05-01 14:23 | 37.50739 | 127.50345 | 25919 ft | 456 kts | 78° |
| 2026-05-01 14:23 | 37.51348 | 127.54273 | 26186 ft | 458 kts | 78° |
| 2026-05-01 14:24 | 37.51962 | 127.58182 | 26445 ft | 460 kts | 78° |
| 2026-05-01 14:24 | 37.52583 | 127.62110 | 26698 ft | 461 kts | 78° |
| 2026-05-01 14:24 | 37.53218 | 127.66099 | 26948 ft | 463 kts | 79° |
| 2026-05-01 14:24 | 37.53846 | 127.70081 | 27188 ft | 465 kts | 79° |
| 2026-05-01 14:25 | 37.54471 | 127.74059 | 27421 ft | 466 kts | 79° |
| 2026-05-01 14:25 | 37.55096 | 127.78034 | 27648 ft | 468 kts | 79° |
| 2026-05-01 14:25 | 37.55730 | 127.82063 | 27871 ft | 469 kts | 79° |
| 2026-05-01 14:25 | 37.56362 | 127.86078 | 28087 ft | 471 kts | 79° |
| 2026-05-01 14:26 | 37.56998 | 127.90122 | 28297 ft | 472 kts | 79° |
| 2026-05-01 14:26 | 37.58280 | 127.98286 | 28718 ft | 475 kts | 79° |
| 2026-05-01 14:26 | 37.58917 | 128.02350 | 28996 ft | 474 kts | 79° |
| 2026-05-01 14:27 | 37.59549 | 128.06387 | 29287 ft | 473 kts | 79° |
| 2026-05-01 14:27 | 37.60186 | 128.10486 | 29567 ft | 472 kts | 79° |
| 2026-05-01 14:27 | 37.60806 | 128.14488 | 29824 ft | 471 kts | 79° |
| 2026-05-01 14:28 | 37.62049 | 128.22601 | 30316 ft | 470 kts | 79° |
| 2026-05-01 14:28 | 37.62669 | 128.26646 | 30552 ft | 470 kts | 79° |
| 2026-05-01 14:28 | 37.63284 | 128.30656 | 30781 ft | 469 kts | 79° |
| 2026-05-01 14:28 | 37.63906 | 128.34715 | 31006 ft | 469 kts | 79° |
| 2026-05-01 14:29 | 37.64513 | 128.38687 | 31220 ft | 468 kts | 79° |
| 2026-05-01 14:29 | 37.65134 | 128.42743 | 31433 ft | 468 kts | 79° |
| 2026-05-01 14:30 | 37.66968 | 128.54793 | 32038 ft | 466 kts | 79° |
| 2026-05-01 14:30 | 37.67577 | 128.58824 | 32229 ft | 466 kts | 79° |
| 2026-05-01 14:30 | 37.68170 | 128.62784 | 32413 ft | 466 kts | 79° |
| 2026-05-01 14:31 | 37.69313 | 128.70811 | 32769 ft | 465 kts | 82° |
| 2026-05-01 14:31 | 37.69698 | 128.74873 | 32938 ft | 464 kts | 85° |
| 2026-05-01 14:31 | 37.69908 | 128.78914 | 33100 ft | 464 kts | 88° |
| 2026-05-01 14:31 | 37.69949 | 128.83008 | 33247 ft | 464 kts | 91° |
| 2026-05-01 14:32 | 37.69910 | 128.87033 | 33376 ft | 464 kts | 91° |
| 2026-05-01 14:32 | 37.69804 | 128.95213 | 33609 ft | 466 kts | 91° |
| 2026-05-01 14:32 | 37.69752 | 128.99292 | 33721 ft | 466 kts | 91° |
| 2026-05-01 14:33 | 37.69701 | 129.03340 | 33831 ft | 466 kts | 91° |
| 2026-05-01 14:33 | 37.69648 | 129.07437 | 33939 ft | 467 kts | 91° |
| 2026-05-01 14:33 | 37.69596 | 129.11528 | 34043 ft | 467 kts | 91° |
| 2026-05-01 14:33 | 37.69542 | 129.15622 | 34144 ft | 468 kts | 91° |
| 2026-05-01 14:34 | 37.69487 | 129.19713 | 34243 ft | 468 kts | 91° |
| 2026-05-01 14:34 | 37.69374 | 129.27913 | 34431 ft | 469 kts | 91° |
| 2026-05-01 14:35 | 37.69255 | 129.36092 | 34607 ft | 469 kts | 91° |
| 2026-05-01 14:35 | 37.69132 | 129.44312 | 34776 ft | 470 kts | 91° |
| 2026-05-01 14:36 | 37.69002 | 129.52586 | 34937 ft | 470 kts | 91° |
| 2026-05-01 14:36 | 37.68870 | 129.60782 | 35006 ft | 471 kts | 91° |
| 2026-05-01 14:37 | 37.68727 | 129.69052 | 35012 ft | 471 kts | 91° |
| 2026-05-01 14:37 | 37.68575 | 129.77327 | 35013 ft | 471 kts | 91° |
| 2026-05-01 14:38 | 37.68416 | 129.85580 | 35013 ft | 471 kts | 91° |
| 2026-05-01 14:38 | 37.68245 | 129.93834 | 35013 ft | 471 kts | 91° |
| 2026-05-01 14:39 | 37.68076 | 130.02058 | 35013 ft | 471 kts | 91° |
| 2026-05-01 14:39 | 37.67906 | 130.10307 | 35013 ft | 471 kts | 91° |
| 2026-05-01 14:40 | 37.67733 | 130.18553 | 35013 ft | 471 kts | 91° |
| 2026-05-01 14:40 | 37.67550 | 130.26807 | 35013 ft | 471 kts | 91° |
| 2026-05-01 14:41 | 37.67347 | 130.35069 | 35013 ft | 471 kts | 91° |
| 2026-05-01 14:41 | 37.67141 | 130.43320 | 35013 ft | 471 kts | 91° |
| 2026-05-01 14:42 | 37.66961 | 130.50558 | 35013 ft | 471 kts | 91° |
| 2026-05-01 14:42 | 37.66753 | 130.58792 | 35013 ft | 471 kts | 91° |
| 2026-05-01 14:43 | 37.66541 | 130.66998 | 35013 ft | 471 kts | 92° |
| 2026-05-01 14:43 | 37.66323 | 130.75293 | 35013 ft | 471 kts | 92° |
| 2026-05-01 14:44 | 37.66099 | 130.83537 | 35013 ft | 471 kts | 92° |
| 2026-05-01 14:44 | 37.65753 | 130.95917 | 35013 ft | 471 kts | 92° |
| 2026-05-01 14:45 | 37.65394 | 131.08276 | 35013 ft | 471 kts | 92° |
| 2026-05-01 14:46 | 37.65149 | 131.16515 | 35013 ft | 471 kts | 92° |
| 2026-05-01 14:46 | 37.64771 | 131.28851 | 35013 ft | 471 kts | 92° |
| 2026-05-01 14:47 | 37.64513 | 131.37097 | 35013 ft | 471 kts | 92° |
| 2026-05-01 14:48 | 37.64119 | 131.49445 | 35013 ft | 471 kts | 92° |
| 2026-05-01 14:48 | 37.63863 | 131.61826 | 35014 ft | 471 kts | 89° |
| 2026-05-01 14:49 | 37.63955 | 131.78330 | 35013 ft | 471 kts | 90° |
| 2026-05-01 14:50 | 37.64032 | 131.94829 | 35013 ft | 471 kts | 90° |
| 2026-05-01 14:51 | 37.64073 | 132.07196 | 35013 ft | 471 kts | 90° |
| 2026-05-01 14:52 | 37.64102 | 132.19588 | 35013 ft | 471 kts | 90° |
| 2026-05-01 14:53 | 37.64119 | 132.31967 | 35013 ft | 471 kts | 90° |
| 2026-05-01 14:53 | 37.64124 | 132.40175 | 35013 ft | 471 kts | 90° |
| 2026-05-01 14:54 | 37.64125 | 132.48445 | 35013 ft | 471 kts | 90° |
| 2026-05-01 14:54 | 37.64122 | 132.56706 | 35013 ft | 471 kts | 90° |
| 2026-05-01 14:55 | 37.64124 | 132.64966 | 35013 ft | 471 kts | 88° |
| 2026-05-01 14:55 | 37.64525 | 132.73138 | 35014 ft | 471 kts | 85° |
| 2026-05-01 14:56 | 37.65159 | 132.81363 | 35013 ft | 471 kts | 84° |
| 2026-05-01 14:56 | 37.65794 | 132.89580 | 35013 ft | 471 kts | 84° |
| 2026-05-01 14:57 | 37.66412 | 132.97801 | 35013 ft | 471 kts | 84° |
| 2026-05-01 14:57 | 37.67305 | 133.10107 | 35013 ft | 471 kts | 85° |
| 2026-05-01 14:58 | 37.67897 | 133.18321 | 35013 ft | 471 kts | 84° |
| 2026-05-01 14:58 | 37.68489 | 133.26559 | 35013 ft | 471 kts | 84° |
| 2026-05-01 14:59 | 37.69077 | 133.34796 | 35013 ft | 471 kts | 84° |
| 2026-05-01 14:59 | 37.69659 | 133.43022 | 35013 ft | 471 kts | 84° |
| 2026-05-01 15:00 | 37.70521 | 133.55318 | 35013 ft | 471 kts | 84° |
| 2026-05-01 15:01 | 37.71096 | 133.63574 | 35013 ft | 471 kts | 84° |
| 2026-05-01 15:01 | 37.71658 | 133.71802 | 35013 ft | 471 kts | 85° |
| 2026-05-01 15:02 | 37.72195 | 133.79990 | 35013 ft | 471 kts | 85° |
| 2026-05-01 15:02 | 37.72729 | 133.88274 | 35013 ft | 471 kts | 85° |
| 2026-05-01 15:03 | 37.73258 | 133.96455 | 35013 ft | 471 kts | 85° |
| 2026-05-01 15:03 | 37.73791 | 134.04730 | 35013 ft | 471 kts | 85° |
| 2026-05-01 15:04 | 37.74316 | 134.12958 | 35013 ft | 471 kts | 85° |
| 2026-05-01 15:04 | 37.74836 | 134.21179 | 35013 ft | 471 kts | 85° |
| 2026-05-01 15:05 | 37.75349 | 134.29395 | 35013 ft | 471 kts | 85° |
| 2026-05-01 15:05 | 37.75858 | 134.37642 | 35013 ft | 471 kts | 85° |
| 2026-05-01 15:06 | 37.76362 | 134.45882 | 35013 ft | 471 kts | 85° |
| 2026-05-01 15:06 | 37.76859 | 134.54123 | 35013 ft | 471 kts | 85° |
| 2026-05-01 15:07 | 37.77351 | 134.62357 | 35013 ft | 471 kts | 85° |
| 2026-05-01 15:07 | 37.77836 | 134.70602 | 35013 ft | 471 kts | 86° |
| 2026-05-01 15:08 | 37.78315 | 134.78854 | 35014 ft | 471 kts | 86° |
| 2026-05-01 15:08 | 37.78790 | 134.87111 | 35014 ft | 471 kts | 86° |
| 2026-05-01 15:09 | 37.79259 | 134.95372 | 35013 ft | 471 kts | 86° |
| 2026-05-01 15:09 | 37.79720 | 135.03575 | 35013 ft | 471 kts | 86° |
| 2026-05-01 15:10 | 37.80178 | 135.11830 | 35013 ft | 471 kts | 86° |
| 2026-05-01 15:10 | 37.80852 | 135.24176 | 35013 ft | 471 kts | 86° |
| 2026-05-01 15:11 | 37.81515 | 135.36581 | 35013 ft | 471 kts | 86° |
| 2026-05-01 15:12 | 37.81950 | 135.44841 | 35013 ft | 471 kts | 86° |
| 2026-05-01 15:12 | 37.82590 | 135.57196 | 35013 ft | 471 kts | 86° |
| 2026-05-01 15:14 | 37.83629 | 135.77855 | 35014 ft | 471 kts | 86° |
| 2026-05-01 15:14 | 37.84233 | 135.90221 | 35014 ft | 471 kts | 86° |
| 2026-05-01 15:15 | 37.85020 | 136.06706 | 35013 ft | 471 kts | 86° |
| 2026-05-01 15:16 | 37.85788 | 136.23261 | 35013 ft | 471 kts | 86° |
| 2026-05-01 15:18 | 37.86712 | 136.43904 | 35013 ft | 471 kts | 86° |
| 2026-05-01 15:19 | 37.87424 | 136.60385 | 35013 ft | 471 kts | 86° |
| 2026-05-01 15:19 | 37.87933 | 136.72507 | 35013 ft | 471 kts | 87° |
| 2026-05-01 15:20 | 37.88441 | 136.84895 | 35014 ft | 471 kts | 87° |
| 2026-05-01 15:21 | 37.88773 | 136.93123 | 35014 ft | 471 kts | 87° |
| 2026-05-01 15:21 | 37.89102 | 137.01428 | 35012 ft | 472 kts | 87° |
| 2026-05-01 15:22 | 37.89588 | 137.13873 | 35012 ft | 474 kts | 87° |
| 2026-05-01 15:22 | 37.89909 | 137.22194 | 35012 ft | 476 kts | 87° |
| 2026-05-01 15:23 | 37.90218 | 137.30585 | 35013 ft | 478 kts | 87° |
| 2026-05-01 15:23 | 37.90523 | 137.39004 | 35013 ft | 482 kts | 87° |
| 2026-05-01 15:24 | 37.90833 | 137.47435 | 35013 ft | 485 kts | 87° |
| 2026-05-01 15:24 | 37.91146 | 137.56000 | 35013 ft | 485 kts | 87° |
| 2026-05-01 15:25 | 37.91452 | 137.64476 | 35013 ft | 485 kts | 87° |
| 2026-05-01 15:25 | 37.91753 | 137.72975 | 35014 ft | 485 kts | 88° |
| 2026-05-01 15:26 | 37.92049 | 137.81485 | 35014 ft | 485 kts | 88° |
| 2026-05-01 15:26 | 37.92342 | 137.90022 | 35014 ft | 485 kts | 88° |
| 2026-05-01 15:27 | 37.92630 | 137.98511 | 35014 ft | 485 kts | 87° |
| 2026-05-01 15:28 | 37.93049 | 138.11339 | 35013 ft | 485 kts | 88° |
| 2026-05-01 15:28 | 37.93297 | 138.19818 | 35013 ft | 485 kts | 88° |
| 2026-05-01 15:29 | 37.93672 | 138.32600 | 35013 ft | 485 kts | 88° |
| 2026-05-01 15:30 | 37.94168 | 138.49672 | 35013 ft | 485 kts | 88° |
| 2026-05-01 15:31 | 37.94869 | 138.75227 | 35014 ft | 485 kts | 88° |
| 2026-05-01 15:32 | 37.95312 | 138.92247 | 35014 ft | 485 kts | 88° |
| 2026-05-01 15:34 | 37.96417 | 139.17813 | 35015 ft | 485 kts | 82° |